OMSJ METAR and TAF | Updated Today

OMSJ METAR

Sharjah International Airport

Observation time: 41 min. ago

OMSJ 080600Z 11006KT 080V170 CAVOK 25/13 Q1021 NOSIG

Need help? Read our tutorial on how to read METARs or read the parsed version below.

Sharjah International Airport (OMSJ) METAR

  • Weather conditions on Wed, 08 Dec 2021 06:00:00 +0000 (41 min. ago):
  • Present conditions: Dry
  • Clouds: Clear skies
  • Visibility: Greater than 10 km
  • Wind: 110 degrees at 6 knots
  • Temperature: 25 celsius
  • Dew point: 13 celsius
  • Pressure: 1021 millibars
  • Remarks: None


Useful to know...

OMSJ TAF

Sharjah International Airport

TAF OMSJ 080500Z 0806/0912 12005KT CAVOK BECMG 0809/0811 36012KT BECMG 0815/0817 10005KT BECMG 0909/0911 33010KT
Observation time: 1:41 hr. ago
Need help? Read our tutorial on how to read TAFs or read the parsed version below.

Parsed version of TAF for Sharjah International Airport (OMSJ)

  • From 08 December at 06:00 UTC, to day 09 of the month at 12:00 UTC
  • Visibility: Greater than 10 km
  • Wind: 120 degrees at 5
  • Expected to arise soon, from 08 December at 09:00 UTC, to day 08 of the month at 11:00 UTC
  • Wind: 360 degrees at 12
  • Expected to arise soon, from 08 December at 15:00 UTC, to day 08 of the month at 17:00 UTC
  • Wind: 100 degrees at 5
  • Expected to arise soon, from 09 December at 09:00 UTC, to day 09 of the month at 11:00 UTC
  • Wind: 330 degrees at 10